Sarfaq Ittuk — OWDD — position and weather

sailwx.info

Track history (hours):
 
Tides and Currents Weather Stations Pressure Air Temp Water Temp Dewpoint Dewpoint Depression Visibility Wind Speed Wind Dir Waves Ship Positions

Sarfaq Ittuk

Last reported at 2019-Dec-10 14:26 UTC. Time now 2019-Dec-12 09:18 UTC.
Position N 63°44' W 051°36'.

Length 73 m; beam 11.1 m; draft 3.7 m.

Type: Passenger vessel. MMSI: 331000499.

Date/timePositionNaut miles runAvg speedWind from/ knotsBaromVisibWave heightAir tempDewpointWater temp
2019-Dec-10 14:26N 63°44' W 051°36'1611.3
2019-Dec-10 13:00N 64°00' W 051°41'611.8
2019-Dec-10 12:30N 64°06' W 051°39'5 4.8
2019-Dec-10 11:30N 64°10' W 051°43'0 0.0
2019-Dec-10 10:30N 64°10' W 051°43'1110.9
2019-Dec-10 09:30N 64°05' W 052°05'510.8
2019-Dec-10 09:01N 64°07' W 052°16'2610.2
2019-Dec-10 06:30N 64°31' W 052°34'2110.6
2019-Dec-10 04:31N 64°52' W 052°43'1111.1
2019-Dec-10 03:30N 65°03' W 052°48'611.1
2019-Dec-10 03:01N 65°09' W 052°50'37 6.8
2019-Dec-09 21:32N 65°43' W 053°20'  
2019-Dec-07 04:30N 64°47' W 052°41'1510.3
2019-Dec-07 03:00N 64°32' W 052°34'2210.9
2019-Dec-07 01:00N 64°11' W 052°22'1010.1
2019-Dec-07 00:00N 64°05' W 052°04'713.1
2019-Dec-06 23:31N 64°08' W 051°51'4 2.1
2019-Dec-06 21:30N 64°10' W 051°43'0 0.0
2019-Dec-06 21:00N 64°10' W 051°43'0 0.0
2019-Dec-06 20:00N 64°10' W 051°43'0 0.0
2019-Dec-06 19:31N 64°10' W 051°43'0 0.0
2019-Dec-06 18:00N 64°10' W 051°43'0 0.0
2019-Dec-06 17:00N 64°10' W 051°43'0 0.0
2019-Dec-06 16:00N 64°10' W 051°43'0 0.0
2019-Dec-06 14:30N 64°10' W 051°43'0 0.0
2019-Dec-06 14:01N 64°10' W 051°43'0 0.0
2019-Dec-06 13:00N 64°10' W 051°43'0 0.0
2019-Dec-06 12:30N 64°10' W 051°43'0 0.0
2019-Dec-06 12:00N 64°10' W 051°43'0 0.0
2019-Dec-06 11:00N 64°10' W 051°43'  
2019-Dec-03 14:59N 63°49' W 051°35'1711.3
2019-Dec-03 13:30N 64°06' W 051°39'6 2.8
2019-Dec-03 11:30N 64°08' W 051°51'18 8.9
2019-Dec-03 09:30N 64°17' W 052°26'611.4
2019-Dec-03 09:01N 64°23' W 052°29'611.3
2019-Dec-03 08:30N 64°28' W 052°32'1111.3
2019-Dec-03 07:30N 64°39' W 052°37'1111.0
2019-Dec-03 06:30N 64°50' W 052°42'1111.1
2019-Dec-03 05:30N 65°01' W 052°47'45 8.5
2019-Dec-03 00:16N 65°43' W 053°20'  
Track history (hours):
 
Tides and Currents Weather Stations Pressure Air Temp Water Temp Dewpoint Dewpoint Depression Visibility Wind Speed Wind Dir Waves Ship Positions

Sarfaq Ittuk

Last reported at 2019-Dec-10 14:26 UTC. Time now 2019-Dec-12 09:18 UTC.
Position N 63°44' W 051°36'.

Length 73 m; beam 11.1 m; draft 3.7 m.

Type: Passenger vessel. MMSI: 331000499.

Date/timePositionNaut miles runAvg speedWind from/ knotsBaromVisibWave heightAir tempDewpointWater temp
2019-Dec-10 14:26N 63°44' W 051°36'1611.3
2019-Dec-10 13:00N 64°00' W 051°41'611.8
2019-Dec-10 12:30N 64°06' W 051°39'5 4.8
2019-Dec-10 11:30N 64°10' W 051°43'0 0.0
2019-Dec-10 10:30N 64°10' W 051°43'1110.9
2019-Dec-10 09:30N 64°05' W 052°05'510.8
2019-Dec-10 09:01N 64°07' W 052°16'2610.2
2019-Dec-10 06:30N 64°31' W 052°34'2110.6
2019-Dec-10 04:31N 64°52' W 052°43'1111.1
2019-Dec-10 03:30N 65°03' W 052°48'611.1
2019-Dec-10 03:01N 65°09' W 052°50'37 6.8
2019-Dec-09 21:32N 65°43' W 053°20'  
2019-Dec-07 04:30N 64°47' W 052°41'1510.3
2019-Dec-07 03:00N 64°32' W 052°34'2210.9
2019-Dec-07 01:00N 64°11' W 052°22'1010.1
2019-Dec-07 00:00N 64°05' W 052°04'713.1
2019-Dec-06 23:31N 64°08' W 051°51'4 2.1
2019-Dec-06 21:30N 64°10' W 051°43'0 0.0
2019-Dec-06 21:00N 64°10' W 051°43'0 0.0
2019-Dec-06 20:00N 64°10' W 051°43'0 0.0
2019-Dec-06 19:31N 64°10' W 051°43'0 0.0
2019-Dec-06 18:00N 64°10' W 051°43'0 0.0
2019-Dec-06 17:00N 64°10' W 051°43'0 0.0
2019-Dec-06 16:00N 64°10' W 051°43'0 0.0
2019-Dec-06 14:30N 64°10' W 051°43'0 0.0
2019-Dec-06 14:01N 64°10' W 051°43'0 0.0
2019-Dec-06 13:00N 64°10' W 051°43'0 0.0
2019-Dec-06 12:30N 64°10' W 051°43'0 0.0
2019-Dec-06 12:00N 64°10' W 051°43'0 0.0
2019-Dec-06 11:00N 64°10' W 051°43'  
2019-Dec-03 14:59N 63°49' W 051°35'1711.3
2019-Dec-03 13:30N 64°06' W 051°39'6 2.8
2019-Dec-03 11:30N 64°08' W 051°51'18 8.9
2019-Dec-03 09:30N 64°17' W 052°26'611.4
2019-Dec-03 09:01N 64°23' W 052°29'611.3
2019-Dec-03 08:30N 64°28' W 052°32'1111.3
2019-Dec-03 07:30N 64°39' W 052°37'1111.0
2019-Dec-03 06:30N 64°50' W 052°42'1111.1
2019-Dec-03 05:30N 65°01' W 052°47'45 8.5
2019-Dec-03 00:16N 65°43' W 053°20'  

Dump ship's entire track history